createdAt,value
2023-05-10T00:01:03.123Z,3.1
2023-05-10T00:06:03.186Z,3.2
2023-05-10T00:11:04.367Z,3.2
2023-05-10T00:16:03.240Z,3.2
2023-05-10T00:21:03.125Z,2.6
2023-05-10T00:26:03.222Z,3
2023-05-10T00:31:03.180Z,2.4
2023-05-10T00:41:03.133Z,2.7
2023-05-10T00:46:03.279Z,2.7
2023-05-10T00:51:03.138Z,2.6
2023-05-10T00:56:03.206Z,2.5
2023-05-10T01:01:04.434Z,2.6
2023-05-10T01:06:04.559Z,2.6
2023-05-10T01:11:04.432Z,2.5
2023-05-10T01:26:03.263Z,3
2023-05-10T01:31:03.176Z,2.7
2023-05-10T01:36:03.274Z,2.8
2023-05-10T01:41:03.165Z,3
2023-05-10T01:46:03.229Z,3
2023-05-10T01:51:03.166Z,2.4
2023-05-10T01:56:05.414Z,2.5
2023-05-10T02:01:05.463Z,2.5
2023-05-10T02:06:03.270Z,2.6
2023-05-10T02:11:05.450Z,3
2023-05-10T02:16:03.254Z,3
2023-05-10T02:21:03.170Z,2.6
2023-05-10T02:26:03.253Z,3.2
2023-05-10T02:31:03.172Z,3
2023-05-10T02:36:03.291Z,2.8
2023-05-10T02:41:03.172Z,2.4
2023-05-10T02:46:03.315Z,2.4
2023-05-10T02:51:03.181Z,2.5
2023-05-10T03:06:03.287Z,2.8
2023-05-10T03:11:03.176Z,2.8
2023-05-10T03:16:03.339Z,2.8
2023-05-10T03:21:04.426Z,2.6
2023-05-10T03:26:03.304Z,2.5
2023-05-10T03:31:03.205Z,2.8
2023-05-10T03:36:04.596Z,2.5
2023-05-10T03:41:04.426Z,2.5
2023-05-10T03:46:04.426Z,2.5
2023-05-10T03:51:03.195Z,2.9
2023-05-10T03:56:03.272Z,2.6
2023-05-10T04:01:03.181Z,2.4
2023-05-10T04:06:03.419Z,2.8
2023-05-10T04:11:03.182Z,2.7
2023-05-10T04:16:03.290Z,2.7
2023-05-10T04:21:03.186Z,2.6
2023-05-10T04:26:03.280Z,3.3
2023-05-10T04:31:04.473Z,3.4
2023-05-10T04:36:03.287Z,4.1
2023-05-10T04:41:04.456Z,4
2023-05-10T04:46:04.475Z,4
2023-05-10T04:51:04.455Z,3.7
2023-05-10T04:56:03.320Z,3.5
2023-05-10T05:01:03.188Z,3.5
2023-05-10T05:06:03.347Z,4
2023-05-10T05:11:04.462Z,4.9
2023-05-10T05:16:04.514Z,4.9
2023-05-10T05:21:05.490Z,4.7
2023-05-10T05:26:03.281Z,4.4
2023-05-10T05:31:03.209Z,3.6
2023-05-10T05:36:03.285Z,4.8
2023-05-10T05:41:03.203Z,4.5
2023-05-10T05:51:04.187Z,3.1
2023-05-10T06:01:03.216Z,4.3
2023-05-10T06:06:03.297Z,5
2023-05-10T06:11:04.495Z,4.2
2023-05-10T06:16:03.285Z,4.2
2023-05-10T06:21:03.253Z,4.7
2023-05-10T06:26:03.286Z,4.2
2023-05-10T06:31:03.275Z,4.2
2023-05-10T06:36:03.338Z,3.8
2023-05-10T06:41:03.217Z,3.8
2023-05-10T06:46:05.320Z,3.8
2023-05-10T06:56:04.629Z,4
2023-05-10T07:06:04.622Z,3.2
2023-05-10T07:11:03.225Z,2.7
2023-05-10T07:16:03.329Z,2.7
2023-05-10T07:26:03.338Z,3.5
2023-05-10T07:31:05.549Z,2.3
2023-05-10T07:36:05.563Z,3
2023-05-10T07:41:03.250Z,2.6
2023-05-10T07:46:05.558Z,2.6
2023-05-10T07:51:05.557Z,2.9
2023-05-10T07:56:03.302Z,2.7
2023-05-10T08:01:05.524Z,2.6
2023-05-10T08:16:06.261Z,2.7
2023-05-10T08:21:03.244Z,2.2
2023-05-10T08:26:05.544Z,1.9
2023-05-10T08:31:05.660Z,2
2023-05-10T08:36:04.568Z,2.6
2023-05-10T08:41:05.546Z,3
2023-05-10T08:46:05.696Z,3
2023-05-10T08:56:03.316Z,2.8
2023-05-10T09:06:03.311Z,2.1
2023-05-10T09:11:04.544Z,2.1
2023-05-10T09:16:13.872Z,2.1
2023-05-10T09:21:03.293Z,2.4
2023-05-10T09:31:04.548Z,2.6
2023-05-10T09:36:03.232Z,2.5
2023-05-10T09:46:03.273Z,2.7
2023-05-10T09:51:06.274Z,2
2023-05-10T09:56:03.296Z,2
2023-05-10T10:11:03.282Z,1.9
2023-05-10T10:21:03.272Z,1.9
2023-05-10T10:26:03.308Z,1.7
2023-05-10T10:31:03.252Z,2
2023-05-10T10:41:03.290Z,1.9
2023-05-10T10:46:03.311Z,1.9
2023-05-10T10:51:03.319Z,1.8
2023-05-10T10:56:03.302Z,1.8
2023-05-10T11:06:07.762Z,1.5
2023-05-10T11:11:03.279Z,1.5
2023-05-10T11:16:03.301Z,1.5
2023-05-10T11:21:05.623Z,1.3
2023-05-10T11:26:03.299Z,1.3
2023-05-10T11:31:10.056Z,1.5
2023-05-10T11:41:03.327Z,1.8
2023-05-10T11:46:03.308Z,1.8
2023-05-10T11:56:04.527Z,1.6
2023-05-10T12:06:04.623Z,0.9
2023-05-10T12:11:03.284Z,0.9
2023-05-10T12:16:03.393Z,0.9
2023-05-10T12:21:03.337Z,0.8
2023-05-10T12:26:03.399Z,0.8
2023-05-10T12:31:05.638Z,0.9
2023-05-10T12:36:03.407Z,0.8
2023-05-10T12:41:05.679Z,1.1
2023-05-10T12:46:03.325Z,1.1
2023-05-10T13:01:06.419Z,0.9
2023-05-10T13:16:03.401Z,1.3
2023-05-10T13:21:05.477Z,0.9
2023-05-10T13:26:05.379Z,0.8
2023-05-10T13:36:05.638Z,1.1
2023-05-10T13:46:03.407Z,1.2
2023-05-10T13:51:05.602Z,1.2
2023-05-10T13:56:05.597Z,1.2
2023-05-10T14:01:04.639Z,0.9
2023-05-10T14:06:05.602Z,1.1
2023-05-10T14:16:05.463Z,1
2023-05-10T14:21:07.775Z,1.2
2023-05-10T14:36:08.730Z,0.8
2023-05-10T14:46:07.705Z,0.9
2023-05-10T14:51:08.658Z,1
2023-05-10T14:56:06.352Z,0.7
2023-05-10T15:01:04.625Z,1
2023-05-10T15:11:03.335Z,1.3
2023-05-10T15:16:05.530Z,1.6
2023-05-10T15:21:05.664Z,0.8
2023-05-10T15:26:03.260Z,0.7
2023-05-10T15:31:05.687Z,0.7
2023-05-10T15:36:05.656Z,0.4
2023-05-10T15:41:03.336Z,0.4
2023-05-10T15:46:05.678Z,0.4
2023-05-10T15:51:03.330Z,0.4
2023-05-10T16:01:04.744Z,0.3
2023-05-10T16:16:03.395Z,0.3
2023-05-10T16:21:03.350Z,0.2
2023-05-10T16:26:03.458Z,0.3
2023-05-10T16:36:05.750Z,0.3
2023-05-10T16:41:03.379Z,0.3
2023-05-10T16:51:03.356Z,0.7
2023-05-10T17:01:03.380Z,0.6
2023-05-10T17:06:03.459Z,0.6
2023-05-10T17:11:03.362Z,0.6
2023-05-10T17:16:03.636Z,0.7
2023-05-10T17:21:04.629Z,0.8
2023-05-10T17:31:04.792Z,0.9
2023-05-10T17:36:03.454Z,0.5
2023-05-10T17:41:03.393Z,0.5
2023-05-10T17:56:06.449Z,0.8
2023-05-10T18:01:03.426Z,0.8
2023-05-10T18:06:05.886Z,0.9
2023-05-10T18:16:05.883Z,0.7
2023-05-10T18:21:05.776Z,0.7
2023-05-10T18:26:05.747Z,0.6
2023-05-10T18:31:03.414Z,0.8
2023-05-10T18:36:03.455Z,0.6
2023-05-10T18:41:03.410Z,0.6
2023-05-10T18:51:05.784Z,0.7
2023-05-10T18:56:03.501Z,0.8
2023-05-10T19:01:03.450Z,0.7
2023-05-10T19:06:04.700Z,0.8
2023-05-10T19:11:05.577Z,0.8
2023-05-10T19:21:08.719Z,0.8
2023-05-10T19:26:08.688Z,0.8
2023-05-10T19:31:03.472Z,0.7
2023-05-10T19:36:03.595Z,0.7
2023-05-10T19:41:03.440Z,0.7
2023-05-10T19:46:05.756Z,0.7
2023-05-10T20:01:03.424Z,0.5
2023-05-10T20:16:05.692Z,0.6
2023-05-10T20:21:03.430Z,0.9
2023-05-10T20:26:03.632Z,0.8
2023-05-10T20:36:03.512Z,0.5
2023-05-10T20:41:03.461Z,0.5
2023-05-10T20:46:03.578Z,0.7
2023-05-10T20:51:05.712Z,0.8
2023-05-10T20:56:03.547Z,1
2023-05-10T21:01:03.424Z,0.9
2023-05-10T21:06:03.527Z,1.1
2023-05-10T21:11:03.436Z,1.1
2023-05-10T21:16:05.752Z,1.2
2023-05-10T21:21:03.458Z,1.2
2023-05-10T21:31:03.425Z,2.2
2023-05-10T21:36:05.761Z,2
2023-05-10T21:41:03.449Z,2
2023-05-10T21:46:03.612Z,2.2
2023-05-10T21:51:03.447Z,2.6
2023-05-10T21:56:03.524Z,2.7
2023-05-10T22:01:04.775Z,3.1
2023-05-10T22:06:04.686Z,2.7
2023-05-10T22:11:03.436Z,2.7
2023-05-10T22:16:05.943Z,2.6
2023-05-10T22:21:04.715Z,2.8
2023-05-10T22:26:03.526Z,2.3
2023-05-10T22:36:03.538Z,2.7
2023-05-10T22:41:03.451Z,2.7
2023-05-10T22:46:05.791Z,2.9
2023-05-10T22:56:05.832Z,2.6
2023-05-10T23:11:06.477Z,2.2
2023-05-10T23:16:03.548Z,2.3
2023-05-10T23:21:03.453Z,2.3
2023-05-10T23:26:03.548Z,2.2
2023-05-10T23:31:05.837Z,2.5
2023-05-10T23:36:03.560Z,2.4
2023-05-10T23:41:04.708Z,2.4
2023-05-10T23:46:03.620Z,2.4
2023-05-10T23:51:03.467Z,2.4
2023-05-10T23:56:03.579Z,2.7
